sensor_id;sensor_type;location;lat;lon;timestamp;pressure;altitude;pressure_sealevel;temperature;humidity
63654;BME280;49809;47.418;19.080;2022-11-15T00:04:27;101030.81;;;4.01;100.00
63654;BME280;49809;47.418;19.080;2022-11-15T00:08:10;101037.84;;;4.01;100.00
63654;BME280;49809;47.418;19.080;2022-11-15T00:11:52;101036.47;;;4.05;100.00
63654;BME280;49809;47.418;19.080;2022-11-15T00:15:41;101033.09;;;4.11;100.00
63654;BME280;49809;47.418;19.080;2022-11-15T00:19:24;101031.94;;;4.20;100.00
63654;BME280;49809;47.418;19.080;2022-11-15T00:23:11;101032.88;;;4.12;100.00
63654;BME280;49809;47.418;19.080;2022-11-15T00:27:00;101022.28;;;4.20;100.00
63654;BME280;49809;47.418;19.080;2022-11-15T00:30:48;101021.34;;;4.07;100.00
63654;BME280;49809;47.418;19.080;2022-11-15T00:34:43;101019.59;;;4.14;100.00
63654;BME280;49809;47.418;19.080;2022-11-15T00:38:45;101017.22;;;4.19;100.00
63654;BME280;49809;47.418;19.080;2022-11-15T00:42:30;101012.03;;;4.25;100.00
63654;BME280;49809;47.418;19.080;2022-11-15T00:46:13;101016.69;;;4.30;100.00
63654;BME280;49809;47.418;19.080;2022-11-15T00:50:14;101007.38;;;4.27;100.00
63654;BME280;49809;47.418;19.080;2022-11-15T00:54:16;101007.03;;;4.30;100.00
63654;BME280;49809;47.418;19.080;2022-11-15T00:58:00;101007.22;;;4.29;100.00
63654;BME280;49809;47.418;19.080;2022-11-15T01:02:07;100997.72;;;4.28;100.00
63654;BME280;49809;47.418;19.080;2022-11-15T01:05:43;101006.81;;;4.32;100.00
63654;BME280;49809;47.418;19.080;2022-11-15T01:09:04;101000.00;;;4.37;100.00
63654;BME280;49809;47.418;19.080;2022-11-15T01:12:25;100995.97;;;4.42;100.00
63654;BME280;49809;47.418;19.080;2022-11-15T01:15:49;100999.28;;;4.50;100.00
63654;BME280;49809;47.418;19.080;2022-11-15T01:19:11;100985.94;;;4.52;100.00
63654;BME280;49809;47.418;19.080;2022-11-15T01:22:32;100981.12;;;4.55;100.00
63654;BME280;49809;47.418;19.080;2022-11-15T01:25:59;100969.66;;;4.63;100.00
63654;BME280;49809;47.418;19.080;2022-11-15T01:29:20;100967.44;;;4.66;100.00
63654;BME280;49809;47.418;19.080;2022-11-15T01:32:44;100969.28;;;4.72;100.00
63654;BME280;49809;47.418;19.080;2022-11-15T01:36:11;100972.31;;;4.76;100.00
63654;BME280;49809;47.418;19.080;2022-11-15T01:39:40;100963.47;;;4.77;100.00
63654;BME280;49809;47.418;19.080;2022-11-15T01:46:47;100965.09;;;4.85;100.00
63654;BME280;49809;47.418;19.080;2022-11-15T01:50:14;100971.59;;;4.89;100.00
63654;BME280;49809;47.418;19.080;2022-11-15T01:53:42;100958.25;;;4.90;100.00
63654;BME280;49809;47.418;19.080;2022-11-15T01:57:25;100964.31;;;4.84;100.00
63654;BME280;49809;47.418;19.080;2022-11-15T02:00:46;100961.47;;;4.86;100.00
63654;BME280;49809;47.418;19.080;2022-11-15T02:04:13;100967.16;;;4.96;100.00
63654;BME280;49809;47.418;19.080;2022-11-15T02:07:37;100953.81;;;4.91;100.00
63654;BME280;49809;47.418;19.080;2022-11-15T02:11:20;100958.28;;;4.97;100.00
63654;BME280;49809;47.418;19.080;2022-11-15T02:14:44;100953.03;;;4.97;100.00
63654;BME280;49809;47.418;19.080;2022-11-15T02:18:28;100950.19;;;4.92;100.00
63654;BME280;49809;47.418;19.080;2022-11-15T02:33:28;100930.66;;;5.07;100.00
63654;BME280;49809;47.418;19.080;2022-11-15T02:38:08;100920.75;;;5.03;100.00
63654;BME280;49809;47.418;19.080;2022-11-15T02:41:11;100920.75;;;5.03;100.00
63654;BME280;49809;47.418;19.080;2022-11-15T02:44:43;100923.59;;;5.14;100.00
63654;BME280;49809;47.418;19.080;2022-11-15T02:48:06;100919.72;;;5.04;100.00
63654;BME280;49809;47.418;19.080;2022-11-15T02:51:39;100920.94;;;5.01;100.00
63654;BME280;49809;47.418;19.080;2022-11-15T03:06:13;100932.44;;;5.00;100.00
63654;BME280;49809;47.418;19.080;2022-11-15T03:20:18;100919.94;;;4.96;100.00
63654;BME280;49809;47.418;19.080;2022-11-15T03:23:41;100918.31;;;4.95;100.00
63654;BME280;49809;47.418;19.080;2022-11-15T03:27:06;100906.41;;;4.99;100.00
63654;BME280;49809;47.418;19.080;2022-11-15T03:30:30;100914.06;;;5.00;100.00
63654;BME280;49809;47.418;19.080;2022-11-15T03:34:01;100901.37;;;4.97;100.00
63654;BME280;49809;47.418;19.080;2022-11-15T03:38:08;100903.38;;;5.02;100.00
63654;BME280;49809;47.418;19.080;2022-11-15T03:41:42;100901.75;;;4.94;100.00
63654;BME280;49809;47.418;19.080;2022-11-15T03:45:14;100900.97;;;4.94;100.00
63654;BME280;49809;47.418;19.080;2022-11-15T03:48:44;100897.09;;;4.90;100.00
63654;BME280;49809;47.418;19.080;2022-11-15T03:52:10;100880.38;;;4.91;100.00
63654;BME280;49809;47.418;19.080;2022-11-15T03:55:37;100863.63;;;4.98;100.00
63654;BME280;49809;47.418;19.080;2022-11-15T03:59:21;100858.97;;;5.00;100.00
63654;BME280;49809;47.418;19.080;2022-11-15T04:02:42;100857.78;;;5.16;100.00
63654;BME280;49809;47.418;19.080;2022-11-15T04:06:03;100844.66;;;5.16;100.00
63654;BME280;49809;47.418;19.080;2022-11-15T04:09:45;100855.78;;;5.18;100.00
63654;BME280;49809;47.418;19.080;2022-11-15T04:13:27;100855.97;;;5.10;100.00
63654;BME280;49809;47.418;19.080;2022-11-15T04:16:50;100853.34;;;5.10;100.00
63654;BME280;49809;47.418;19.080;2022-11-15T04:20:16;100861.81;;;5.12;100.00
63654;BME280;49809;47.418;19.080;2022-11-15T04:23:58;100860.81;;;5.06;100.00
63654;BME280;49809;47.418;19.080;2022-11-15T04:27:27;100862.22;;;5.02;100.00
63654;BME280;49809;47.418;19.080;2022-11-15T04:30:49;100856.97;;;4.96;100.00
63654;BME280;49809;47.418;19.080;2022-11-15T04:34:12;100857.56;;;4.91;100.00
63654;BME280;49809;47.418;19.080;2022-11-15T04:37:34;100847.47;;;4.81;100.00
63654;BME280;49809;47.418;19.080;2022-11-15T04:40:55;100840.78;;;4.72;100.00
63654;BME280;49809;47.418;19.080;2022-11-15T04:44:16;100840.00;;;4.72;100.00
63654;BME280;49809;47.418;19.080;2022-11-15T04:47:39;100845.25;;;4.78;100.00
63654;BME280;49809;47.418;19.080;2022-11-15T04:51:21;100829.47;;;4.65;100.00
63654;BME280;49809;47.418;19.080;2022-11-15T04:54:42;100839.19;;;4.71;100.00
63654;BME280;49809;47.418;19.080;2022-11-15T04:58:04;100832.53;;;4.75;100.00
63654;BME280;49809;47.418;19.080;2022-11-15T05:01:27;100834.53;;;4.80;100.00
63654;BME280;49809;47.418;19.080;2022-11-15T05:05:09;100830.09;;;4.80;100.00
63654;BME280;49809;47.418;19.080;2022-11-15T05:08:32;100817.81;;;4.88;100.00
63654;BME280;49809;47.418;19.080;2022-11-15T05:12:14;100827.69;;;4.99;100.00
63654;BME280;49809;47.418;19.080;2022-11-15T05:15:40;100825.88;;;5.06;100.00
63654;BME280;49809;47.418;19.080;2022-11-15T05:19:01;100836.19;;;5.01;100.00
63654;BME280;49809;47.418;19.080;2022-11-15T05:22:25;100832.34;;;5.10;100.00
63654;BME280;49809;47.418;19.080;2022-11-15T05:26:09;100835.97;;;5.09;100.00
63654;BME280;49809;47.418;19.080;2022-11-15T05:29:32;100840.63;;;5.20;100.00
63654;BME280;49809;47.418;19.080;2022-11-15T05:33:13;100840.41;;;5.15;100.00
63654;BME280;49809;47.418;19.080;2022-11-15T05:36:54;100843.66;;;5.17;100.00
63654;BME280;49809;47.418;19.080;2022-11-15T05:40:24;100836.00;;;5.22;100.00
63654;BME280;49809;47.418;19.080;2022-11-15T05:44:07;100835.16;;;5.28;100.00
63654;BME280;49809;47.418;19.080;2022-11-15T05:47:46;100828.91;;;5.29;100.00
63654;BME280;49809;47.418;19.080;2022-11-15T05:51:08;100816.59;;;5.30;100.00
63654;BME280;49809;47.418;19.080;2022-11-15T05:54:31;100817.78;;;5.34;100.00
63654;BME280;49809;47.418;19.080;2022-11-15T05:58:02;100823.66;;;5.29;100.00
63654;BME280;49809;47.418;19.080;2022-11-15T06:01:25;100819.00;;;5.24;100.00
63654;BME280;49809;47.418;19.080;2022-11-15T06:04:47;100821.03;;;5.29;100.00
63654;BME280;49809;47.418;19.080;2022-11-15T06:08:08;100813.34;;;5.34;100.00
63654;BME280;49809;47.418;19.080;2022-11-15T06:11:30;100811.31;;;5.43;100.00
63654;BME280;49809;47.418;19.080;2022-11-15T06:14:51;100814.16;;;5.41;100.00
63654;BME280;49809;47.418;19.080;2022-11-15T06:18:12;100821.81;;;5.56;100.00
63654;BME280;49809;47.418;19.080;2022-11-15T06:21:55;100822.63;;;5.56;100.00
63654;BME280;49809;47.418;19.080;2022-11-15T06:25:39;100817.38;;;5.43;100.00
63654;BME280;49809;47.418;19.080;2022-11-15T06:29:04;100820.56;;;5.52;100.00
63654;BME280;49809;47.418;19.080;2022-11-15T06:32:26;100810.69;;;5.47;100.00
63654;BME280;49809;47.418;19.080;2022-11-15T06:36:20;100818.12;;;5.57;100.00
63654;BME280;49809;47.418;19.080;2022-11-15T06:40:03;100820.97;;;5.62;100.00
63654;BME280;49809;47.418;19.080;2022-11-15T06:43:45;100835.50;;;5.58;100.00
63654;BME280;49809;47.418;19.080;2022-11-15T06:47:09;100826.63;;;5.52;100.00
63654;BME280;49809;47.418;19.080;2022-11-15T06:50:30;100823.19;;;5.58;100.00
63654;BME280;49809;47.418;19.080;2022-11-15T06:54:16;100821.19;;;5.60;100.00
63654;BME280;49809;47.418;19.080;2022-11-15T06:57:51;100829.84;;;5.67;100.00
63654;BME280;49809;47.418;19.080;2022-11-15T07:01:12;100841.97;;;5.68;100.00
63654;BME280;49809;47.418;19.080;2022-11-15T07:04:34;100831.22;;;5.77;100.00
63654;BME280;49809;47.418;19.080;2022-11-15T07:08:20;100812.00;;;5.83;100.00
63654;BME280;49809;47.418;19.080;2022-11-15T07:11:53;100821.72;;;5.82;100.00
63654;BME280;49809;47.418;19.080;2022-11-15T07:15:35;100824.56;;;5.94;100.00
63654;BME280;49809;47.418;19.080;2022-11-15T07:19:42;100827.72;;;6.09;100.00
63654;BME280;49809;47.418;19.080;2022-11-15T07:23:25;100815.78;;;6.06;100.00
63654;BME280;49809;47.418;19.080;2022-11-15T07:27:02;100807.69;;;6.15;100.00
63654;BME280;49809;47.418;19.080;2022-11-15T07:30:22;100811.88;;;6.22;100.00
63654;BME280;49809;47.418;19.080;2022-11-15T07:33:43;100811.44;;;6.32;100.00
63654;BME280;49809;47.418;19.080;2022-11-15T07:37:24;100811.81;;;6.35;100.00
63654;BME280;49809;47.418;19.080;2022-11-15T07:40:56;100802.91;;;6.36;100.00
63654;BME280;49809;47.418;19.080;2022-11-15T07:44:31;100801.69;;;6.39;100.00
63654;BME280;49809;47.418;19.080;2022-11-15T07:47:50;100801.72;;;6.32;100.00
63654;BME280;49809;47.418;19.080;2022-11-15T07:51:12;100820.66;;;6.47;100.00
63654;BME280;49809;47.418;19.080;2022-11-15T07:54:57;100802.97;;;6.61;100.00
63654;BME280;49809;47.418;19.080;2022-11-15T07:59:01;100803.34;;;6.65;100.00
63654;BME280;49809;47.418;19.080;2022-11-15T08:02:45;100802.41;;;6.52;100.00
63654;BME280;49809;47.418;19.080;2022-11-15T08:06:19;100815.34;;;6.54;100.00
63654;BME280;49809;47.418;19.080;2022-11-15T08:10:10;100808.66;;;6.58;100.00
63654;BME280;49809;47.418;19.080;2022-11-15T08:13:33;100791.12;;;6.45;100.00
63654;BME280;49809;47.418;19.080;2022-11-15T08:17:07;100789.75;;;6.36;100.00
63654;BME280;49809;47.418;19.080;2022-11-15T08:20:43;100777.28;;;6.25;100.00
63654;BME280;49809;47.418;19.080;2022-11-15T08:24:32;100782.59;;;6.50;100.00
63654;BME280;49809;47.418;19.080;2022-11-15T08:28:07;100783.03;;;6.47;100.00
63654;BME280;49809;47.418;19.080;2022-11-15T08:31:26;100777.97;;;6.45;100.00
63654;BME280;49809;47.418;19.080;2022-11-15T08:34:46;100778.16;;;6.50;100.00
63654;BME280;49809;47.418;19.080;2022-11-15T08:38:20;100775.06;;;6.53;100.00
63654;BME280;49809;47.418;19.080;2022-11-15T08:41:39;100776.50;;;6.56;100.00
63654;BME280;49809;47.418;19.080;2022-11-15T08:45:12;100778.09;;;6.57;100.00
63654;BME280;49809;47.418;19.080;2022-11-15T08:48:46;100768.00;;;6.54;100.00
63654;BME280;49809;47.418;19.080;2022-11-15T08:52:08;100767.97;;;6.61;100.00
63654;BME280;49809;47.418;19.080;2022-11-15T08:55:43;100756.75;;;6.40;100.00
63654;BME280;49809;47.418;19.080;2022-11-15T08:59:24;100754.91;;;6.47;100.00
63654;BME280;49809;47.418;19.080;2022-11-15T09:03:27;100747.38;;;6.82;100.00
63654;BME280;49809;47.418;19.080;2022-11-15T09:06:48;100740.41;;;6.88;100.00
63654;BME280;49809;47.418;19.080;2022-11-15T09:10:18;100736.34;;;6.92;100.00
63654;BME280;49809;47.418;19.080;2022-11-15T09:13:39;100735.22;;;7.24;100.00
63654;BME280;49809;47.418;19.080;2022-11-15T09:17:02;100736.47;;;7.40;100.00
63654;BME280;49809;47.418;19.080;2022-11-15T09:20:24;100740.56;;;7.54;100.00
63654;BME280;49809;47.418;19.080;2022-11-15T09:24:05;100727.75;;;7.58;100.00
63654;BME280;49809;47.418;19.080;2022-11-15T09:27:46;100727.00;;;7.51;100.00
63654;BME280;49809;47.418;19.080;2022-11-15T09:31:08;100721.19;;;7.30;100.00
63654;BME280;49809;47.418;19.080;2022-11-15T09:34:29;100714.72;;;7.26;100.00
63654;BME280;49809;47.418;19.080;2022-11-15T09:42:52;100728.19;;;7.18;100.00
63654;BME280;49809;47.418;19.080;2022-11-15T09:46:38;100730.75;;;7.25;100.00
63654;BME280;49809;47.418;19.080;2022-11-15T09:50:46;100722.63;;;7.45;100.00
63654;BME280;49809;47.418;19.080;2022-11-15T09:54:36;100717.06;;;7.53;100.00
63654;BME280;49809;47.418;19.080;2022-11-15T09:58:18;100715.44;;;7.52;100.00
63654;BME280;49809;47.418;19.080;2022-11-15T10:06:23;100705.72;;;7.52;100.00
63654;BME280;49809;47.418;19.080;2022-11-15T10:10:32;100703.91;;;7.53;100.00
63654;BME280;49809;47.418;19.080;2022-11-15T10:29:27;100684.16;;;7.43;100.00
63654;BME280;49809;47.418;19.080;2022-11-15T10:32:33;100672.50;;;7.69;100.00
63654;BME280;49809;47.418;19.080;2022-11-15T10:36:19;100673.03;;;7.60;100.00
63654;BME280;49809;47.418;19.080;2022-11-15T10:40:05;100670.66;;;7.52;100.00
63654;BME280;49809;47.418;19.080;2022-11-15T10:43:18;100661.69;;;7.59;100.00
63654;BME280;49809;47.418;19.080;2022-11-15T10:50:24;100657.09;;;7.66;100.00
63654;BME280;49809;47.418;19.080;2022-11-15T10:53:58;100652.34;;;7.45;100.00
63654;BME280;49809;47.418;19.080;2022-11-15T10:57:35;100649.16;;;7.55;100.00
63654;BME280;49809;47.418;19.080;2022-11-15T11:09:02;100613.31;;;7.54;100.00
63654;BME280;49809;47.418;19.080;2022-11-15T11:12:51;100618.44;;;7.49;100.00
63654;BME280;49809;47.418;19.080;2022-11-15T11:20:39;100608.84;;;7.54;100.00
63654;BME280;49809;47.418;19.080;2022-11-15T11:24:53;100610.03;;;7.70;100.00
63654;BME280;49809;47.418;19.080;2022-11-15T11:35:51;100603.44;;;7.49;100.00
63654;BME280;49809;47.418;19.080;2022-11-15T11:58:42;100566.03;;;7.29;100.00
63654;BME280;49809;47.418;19.080;2022-11-15T12:02:35;100562.47;;;7.23;100.00
63654;BME280;49809;47.418;19.080;2022-11-15T12:14:24;100546.84;;;7.40;100.00
63654;BME280;49809;47.418;19.080;2022-11-15T12:29:41;100514.13;;;7.18;100.00
63654;BME280;49809;47.418;19.080;2022-11-15T12:32:51;100513.19;;;7.12;100.00
63654;BME280;49809;47.418;19.080;2022-11-15T12:36:02;100516.59;;;7.01;100.00
63654;BME280;49809;47.418;19.080;2022-11-15T12:47:24;100514.91;;;6.88;100.00
63654;BME280;49809;47.418;19.080;2022-11-15T12:51:00;100491.91;;;6.84;100.00
63654;BME280;49809;47.418;19.080;2022-11-15T12:58:57;100508.56;;;6.78;100.00
63654;BME280;49809;47.418;19.080;2022-11-15T13:03:15;100501.13;;;6.75;100.00
63654;BME280;49809;47.418;19.080;2022-11-15T13:06:57;100504.03;;;6.85;100.00
63654;BME280;49809;47.418;19.080;2022-11-15T13:10:33;100499.84;;;6.95;100.00
63654;BME280;49809;47.418;19.080;2022-11-15T13:21:55;100491.06;;;7.02;100.00
63654;BME280;49809;47.418;19.080;2022-11-15T13:26:13;100492.00;;;7.07;100.00
63654;BME280;49809;47.418;19.080;2022-11-15T13:29:50;100475.13;;;7.26;100.00
63654;BME280;49809;47.418;19.080;2022-11-15T13:32:58;100465.62;;;7.25;100.00
63654;BME280;49809;47.418;19.080;2022-11-15T13:36:34;100467.31;;;7.20;100.00
63654;BME280;49809;47.418;19.080;2022-11-15T13:40:28;100453.56;;;7.18;100.00
63654;BME280;49809;47.418;19.080;2022-11-15T13:44:20;100449.44;;;7.10;100.00
63654;BME280;49809;47.418;19.080;2022-11-15T13:47:30;100446.00;;;7.10;100.00
63654;BME280;49809;47.418;19.080;2022-11-15T13:50:36;100448.16;;;7.01;100.00
63654;BME280;49809;47.418;19.080;2022-11-15T13:53:50;100447.00;;;6.97;100.00
63654;BME280;49809;47.418;19.080;2022-11-15T14:04:54;100438.25;;;6.85;100.00
63654;BME280;49809;47.418;19.080;2022-11-15T14:08:23;100435.62;;;6.85;100.00
63654;BME280;49809;47.418;19.080;2022-11-15T14:11:53;100429.41;;;6.79;100.00
63654;BME280;49809;47.418;19.080;2022-11-15T14:15:45;100437.09;;;6.81;100.00
63654;BME280;49809;47.418;19.080;2022-11-15T14:18:52;100430.97;;;6.69;100.00
63654;BME280;49809;47.418;19.080;2022-11-15T14:22:22;100422.53;;;6.78;100.00
63654;BME280;49809;47.418;19.080;2022-11-15T14:29:59;100414.91;;;6.77;100.00
63654;BME280;49809;47.418;19.080;2022-11-15T14:36:38;100399.66;;;6.67;100.00
63654;BME280;49809;47.418;19.080;2022-11-15T14:39:41;100398.03;;;6.66;100.00
63654;BME280;49809;47.418;19.080;2022-11-15T14:42:50;100390.47;;;6.58;100.00
63654;BME280;49809;47.418;19.080;2022-11-15T14:46:11;100388.47;;;6.53;100.00
63654;BME280;49809;47.418;19.080;2022-11-15T14:49:16;100387.03;;;6.58;100.00
63654;BME280;49809;47.418;19.080;2022-11-15T14:55:25;100389.06;;;6.55;100.00
63654;BME280;49809;47.418;19.080;2022-11-15T14:58:46;100386.78;;;6.59;100.00
63654;BME280;49809;47.418;19.080;2022-11-15T15:01:51;100380.16;;;6.57;100.00
63654;BME280;49809;47.418;19.080;2022-11-15T15:04:54;100376.50;;;6.58;100.00
63654;BME280;49809;47.418;19.080;2022-11-15T15:08:08;100381.97;;;6.56;100.00
63654;BME280;49809;47.418;19.080;2022-11-15T15:11:21;100374.31;;;6.54;100.00
63654;BME280;49809;47.418;19.080;2022-11-15T15:14:46;100373.50;;;6.54;100.00
63654;BME280;49809;47.418;19.080;2022-11-15T15:18:09;100369.28;;;6.53;100.00
63654;BME280;49809;47.418;19.080;2022-11-15T15:21:37;100367.56;;;6.59;100.00
63654;BME280;49809;47.418;19.080;2022-11-15T15:25:00;100369.78;;;6.62;100.00
63654;BME280;49809;47.418;19.080;2022-11-15T15:28:03;100371.81;;;6.60;100.00
63654;BME280;49809;47.418;19.080;2022-11-15T15:31:06;100383.94;;;6.61;100.00
63654;BME280;49809;47.418;19.080;2022-11-15T15:34:13;100383.94;;;6.61;100.00
63654;BME280;49809;47.418;19.080;2022-11-15T15:37:49;100375.91;;;6.55;100.00
63654;BME280;49809;47.418;19.080;2022-11-15T15:41:15;100382.25;;;6.66;100.00
63654;BME280;49809;47.418;19.080;2022-11-15T15:44:20;100382.94;;;6.62;100.00
63654;BME280;49809;47.418;19.080;2022-11-15T15:47:25;100381.91;;;6.63;100.00
63654;BME280;49809;47.418;19.080;2022-11-15T15:50:32;100377.81;;;6.67;100.00
63654;BME280;49809;47.418;19.080;2022-11-15T15:53:37;100367.28;;;6.67;100.00
63654;BME280;49809;47.418;19.080;2022-11-15T15:56:56;100369.31;;;6.65;100.00
63654;BME280;49809;47.418;19.080;2022-11-15T16:00:03;100353.19;;;6.61;100.00
63654;BME280;49809;47.418;19.080;2022-11-15T16:03:13;100349.16;;;6.59;100.00
63654;BME280;49809;47.418;19.080;2022-11-15T16:06:41;100360.50;;;6.59;100.00
63654;BME280;49809;47.418;19.080;2022-11-15T16:10:29;100361.12;;;6.73;100.00
63654;BME280;49809;47.418;19.080;2022-11-15T16:13:57;100357.31;;;6.69;100.00
63654;BME280;49809;47.418;19.080;2022-11-15T16:17:01;100350.59;;;6.73;100.00
63654;BME280;49809;47.418;19.080;2022-11-15T16:20:04;100352.66;;;6.71;100.00
63654;BME280;49809;47.418;19.080;2022-11-15T16:23:13;100350.69;;;6.66;100.00
63654;BME280;49809;47.418;19.080;2022-11-15T16:26:38;100346.38;;;6.72;100.00
63654;BME280;49809;47.418;19.080;2022-11-15T16:29:49;100358.97;;;6.81;100.00
63654;BME280;49809;47.418;19.080;2022-11-15T16:33:11;100350.03;;;6.71;100.00
63654;BME280;49809;47.418;19.080;2022-11-15T16:36:26;100347.38;;;6.71;100.00
63654;BME280;49809;47.418;19.080;2022-11-15T16:39:32;100350.59;;;6.73;100.00
63654;BME280;49809;47.418;19.080;2022-11-15T16:42:57;100349.25;;;6.82;100.00
63654;BME280;49809;47.418;19.080;2022-11-15T16:46:12;100337.88;;;6.70;100.00
63654;BME280;49809;47.418;19.080;2022-11-15T16:49:31;100339.63;;;6.76;100.00
63654;BME280;49809;47.418;19.080;2022-11-15T16:53:11;100337.22;;;6.74;100.00
63654;BME280;49809;47.418;19.080;2022-11-15T16:56:29;100328.28;;;6.75;100.00
63654;BME280;49809;47.418;19.080;2022-11-15T16:59:48;100327.63;;;6.80;100.00
63654;BME280;49809;47.418;19.080;2022-11-15T17:03:23;100331.16;;;6.74;100.00
63654;BME280;49809;47.418;19.080;2022-11-15T17:06:48;100330.72;;;6.77;100.00
63654;BME280;49809;47.418;19.080;2022-11-15T17:10:16;100327.50;;;6.75;100.00
63654;BME280;49809;47.418;19.080;2022-11-15T17:13:38;100322.34;;;6.80;100.00
63654;BME280;49809;47.418;19.080;2022-11-15T17:16:56;100325.44;;;6.77;100.00
63654;BME280;49809;47.418;19.080;2022-11-15T17:20:27;100316.50;;;6.78;100.00
63654;BME280;49809;47.418;19.080;2022-11-15T17:23:29;100312.72;;;6.74;100.00
63654;BME280;49809;47.418;19.080;2022-11-15T17:27:01;100315.34;;;6.74;100.00
63654;BME280;49809;47.418;19.080;2022-11-15T17:30:40;100311.69;;;6.63;100.00
63654;BME280;49809;47.418;19.080;2022-11-15T17:34:33;100309.84;;;6.64;100.00
63654;BME280;49809;47.418;19.080;2022-11-15T17:38:08;100310.09;;;6.74;100.00
63654;BME280;49809;47.418;19.080;2022-11-15T17:41:29;100292.91;;;6.60;100.00
63654;BME280;49809;47.418;19.080;2022-11-15T17:45:04;100300.81;;;6.60;100.00
63654;BME280;49809;47.418;19.080;2022-11-15T17:48:38;100286.03;;;6.59;100.00
63654;BME280;49809;47.418;19.080;2022-11-15T17:51:56;100280.34;;;6.62;100.00
63654;BME280;49809;47.418;19.080;2022-11-15T17:55:31;100276.44;;;6.64;100.00
63654;BME280;49809;47.418;19.080;2022-11-15T17:58:59;100264.09;;;6.65;100.00
63654;BME280;49809;47.418;19.080;2022-11-15T18:02:30;100261.94;;;6.73;100.00
63654;BME280;49809;47.418;19.080;2022-11-15T18:05:58;100260.25;;;6.79;100.00
63654;BME280;49809;47.418;19.080;2022-11-15T18:09:26;100260.91;;;6.74;100.00
63654;BME280;49809;47.418;19.080;2022-11-15T18:13:02;100264.81;;;6.72;100.00
63654;BME280;49809;47.418;19.080;2022-11-15T18:16:51;100262.75;;;6.62;100.00
63654;BME280;49809;47.418;19.080;2022-11-15T18:20:11;100258.03;;;6.64;100.00
63654;BME280;49809;47.418;19.080;2022-11-15T18:23:57;100252.69;;;6.71;100.00
63654;BME280;49809;47.418;19.080;2022-11-15T18:27:26;100250.87;;;6.71;100.00
63654;BME280;49809;47.418;19.080;2022-11-15T18:31:03;100247.44;;;6.71;100.00
63654;BME280;49809;47.418;19.080;2022-11-15T18:34:28;100246.16;;;6.73;100.00
63654;BME280;49809;47.418;19.080;2022-11-15T18:37:55;100243.06;;;6.65;100.00
63654;BME280;49809;47.418;19.080;2022-11-15T18:41:48;100247.91;;;6.68;100.00
63654;BME280;49809;47.418;19.080;2022-11-15T18:49:00;100234.88;;;6.73;100.00
63654;BME280;49809;47.418;19.080;2022-11-15T18:52:22;100238.16;;;6.68;100.00
63654;BME280;49809;47.418;19.080;2022-11-15T18:56:01;100236.00;;;6.77;100.00
63654;BME280;49809;47.418;19.080;2022-11-15T19:00:05;100232.12;;;6.68;100.00
63654;BME280;49809;47.418;19.080;2022-11-15T19:03:41;100219.50;;;6.70;100.00
63654;BME280;49809;47.418;19.080;2022-11-15T19:06:58;100230.84;;;6.70;100.00
63654;BME280;49809;47.418;19.080;2022-11-15T19:10:35;100226.03;;;6.79;100.00
63654;BME280;49809;47.418;19.080;2022-11-15T19:14:18;100226.72;;;6.74;100.00
63654;BME280;49809;47.418;19.080;2022-11-15T19:18:06;100217.69;;;6.70;100.00
63654;BME280;49809;47.418;19.080;2022-11-15T19:21:33;100211.75;;;6.75;100.00
63654;BME280;49809;47.418;19.080;2022-11-15T19:25:08;100209.91;;;6.75;100.00
63654;BME280;49809;47.418;19.080;2022-11-15T19:28:55;100204.44;;;6.77;100.00
63654;BME280;49809;47.418;19.080;2022-11-15T19:32:59;100200.88;;;6.83;100.00
63654;BME280;49809;47.418;19.080;2022-11-15T19:36:48;100198.25;;;6.83;100.00
63654;BME280;49809;47.418;19.080;2022-11-15T19:40:17;100196.66;;;6.82;100.00
63654;BME280;49809;47.418;19.080;2022-11-15T19:43:59;100195.50;;;6.78;100.00
63654;BME280;49809;47.418;19.080;2022-11-15T19:47:36;100189.78;;;6.81;100.00
63654;BME280;49809;47.418;19.080;2022-11-15T19:51:29;100182.81;;;6.86;100.00
63654;BME280;49809;47.418;19.080;2022-11-15T19:55:54;100176.06;;;6.79;100.00
63654;BME280;49809;47.418;19.080;2022-11-15T19:59:29;100169.19;;;6.78;100.00
63654;BME280;49809;47.418;19.080;2022-11-15T20:06:56;100159.72;;;6.77;100.00
63654;BME280;49809;47.418;19.080;2022-11-15T20:10:23;100151.69;;;6.83;100.00
63654;BME280;49809;47.418;19.080;2022-11-15T20:14:10;100151.81;;;6.77;100.00
63654;BME280;49809;47.418;19.080;2022-11-15T20:17:37;100140.62;;;6.81;100.00
63654;BME280;49809;47.418;19.080;2022-11-15T20:21:17;100145.97;;;6.75;100.00
63654;BME280;49809;47.418;19.080;2022-11-15T20:24:53;100145.66;;;6.71;100.00
63654;BME280;49809;47.418;19.080;2022-11-15T20:28:31;100139.81;;;6.81;100.00
63654;BME280;49809;47.418;19.080;2022-11-15T20:32:17;100143.25;;;6.81;100.00
63654;BME280;49809;47.418;19.080;2022-11-15T20:35:55;100138.56;;;6.72;100.00
63654;BME280;49809;47.418;19.080;2022-11-15T20:39:16;100135.00;;;6.78;100.00
63654;BME280;49809;47.418;19.080;2022-11-15T20:46:58;100130.19;;;6.75;100.00
63654;BME280;49809;47.418;19.080;2022-11-15T20:50:45;100124.81;;;6.70;100.00
63654;BME280;49809;47.418;19.080;2022-11-15T21:06:56;100121.72;;;6.84;100.00
63654;BME280;49809;47.418;19.080;2022-11-15T21:10:27;100109.03;;;6.81;100.00
63654;BME280;49809;47.418;19.080;2022-11-15T21:14:12;100100.47;;;6.74;100.00
63654;BME280;49809;47.418;19.080;2022-11-15T21:17:47;100107.44;;;6.80;100.00
63654;BME280;49809;47.418;19.080;2022-11-15T21:21:22;100100.34;;;6.81;100.00